Time;durP1;ratioP1;P1;durP2;ratioP2;P2;SDS_P1;SDS_P2;PMS_P1;PMS_P2;Temp;Humidity;BMP_temperature;BMP_pressure;BME280_temperature;BME280_humidity;BME280_pressure;Samples;Min_cycle;Max_cycle;Signal;HPM_P1;HPM_P2
2021/11/27 00:00:38;;;;;;;18.05;7.05;;;;;;;;;;10520192;28;20111;-81
2021/11/27 00:05:39;;;;;;;16.00;6.63;;;;;;;;;;10509304;28;20102;-79
2021/11/27 00:10:41;;;;;;;24.63;6.88;;;;;;;;;;10512790;28;20061;-79
2021/11/27 00:15:43;;;;;;;15.05;6.68;;;;;;;;;;10510704;28;20163;-79
2021/11/27 00:20:46;;;;;;;15.90;6.32;;;;;;;;;;10508923;28;20435;-81
2021/11/27 00:25:46;;;;;;;11.82;6.40;;;;;;;;;;10501115;28;20020;-81
2021/11/27 00:30:47;;;;;;;11.00;6.80;;;;;;;;;;10439021;22;20466;-82
2021/11/27 00:35:47;;;;;;;15.88;7.03;;;;;;;;;;10326536;28;20165;-82
2021/11/27 00:40:48;;;;;;;12.07;6.53;;;;;;;;;;10326857;28;20044;-82
2021/11/27 00:45:48;;;;;;;12.15;6.03;;;;;;;;;;10333104;28;20019;-81
2021/11/27 00:50:59;;;;;;;16.33;6.47;;;;;;;;;;10333520;28;20096;-81
2021/11/27 00:55:59;;;;;;;9.60;6.00;;;;;;;;;;10332855;28;20049;-81
2021/11/27 01:01:03;;;;;;;8.73;6.20;;;;;;;;;;10333162;28;20057;-81
2021/11/27 01:06:06;;;;;;;11.13;5.90;;;;;;;;;;10333420;28;20031;-84
2021/11/27 01:11:15;;;;;;;15.85;5.60;;;;;;;;;;10337768;28;20089;-83
2021/11/27 01:16:17;;;;;;;9.65;5.95;;;;;;;;;;10318549;28;20034;-84
2021/11/27 01:21:21;;;;;;;10.95;5.75;;;;;;;;;;10338015;28;20042;-84
2021/11/27 01:26:22;;;;;;;11.73;5.47;;;;;;;;;;10326556;28;20466;-84
2021/11/27 01:31:23;;;;;;;13.63;5.53;;;;;;;;;;10337591;28;20073;-84
2021/11/27 01:36:23;;;;;;;11.25;5.75;;;;;;;;;;10350004;28;20385;-85
2021/11/27 01:41:24;;;;;;;13.63;5.72;;;;;;;;;;10337049;28;20480;-87
2021/11/27 01:46:25;;;;;;;13.10;6.38;;;;;;;;;;10340015;28;20031;-84
2021/11/27 01:51:25;;;;;;;7.07;5.32;;;;;;;;;;10338752;28;20049;-89
2021/11/27 01:56:28;;;;;;;10.50;5.45;;;;;;;;;;10352372;28;20460;-90
2021/11/27 02:01:30;;;;;;;8.40;5.20;;;;;;;;;;10338176;28;20037;-86
2021/11/27 02:06:31;;;;;;;13.38;5.30;;;;;;;;;;10338552;28;20038;-85
2021/11/27 02:11:34;;;;;;;9.07;4.97;;;;;;;;;;10333654;28;20125;-90
2021/11/27 02:16:35;;;;;;;8.45;4.95;;;;;;;;;;10324630;28;20026;-90
2021/11/27 02:21:36;;;;;;;7.35;4.88;;;;;;;;;;10338008;28;20037;-92
2021/11/27 02:26:37;;;;;;;7.45;5.00;;;;;;;;;;10337319;28;20026;-87
2021/11/27 02:31:37;;;;;;;7.30;5.03;;;;;;;;;;10337662;28;20046;-87
2021/11/27 02:36:40;;;;;;;6.90;5.07;;;;;;;;;;10346102;28;20077;-89
2021/11/27 02:41:40;;;;;;;8.63;4.90;;;;;;;;;;10338274;28;20034;-88
2021/11/27 02:46:41;;;;;;;9.35;4.57;;;;;;;;;;10334602;28;20023;-87
2021/11/27 02:51:42;;;;;;;6.68;4.85;;;;;;;;;;10325170;28;20038;-87
2021/11/27 02:56:43;;;;;;;6.30;4.28;;;;;;;;;;10338060;28;20048;-86
2021/11/27 03:01:46;;;;;;;5.70;3.95;;;;;;;;;;10336243;28;20062;-87
2021/11/27 03:06:47;;;;;;;5.45;4.55;;;;;;;;;;10336118;28;20416;-86
2021/11/27 03:11:51;;;;;;;9.95;4.65;;;;;;;;;;10318246;28;20117;-88
2021/11/27 03:16:53;;;;;;;6.55;4.47;;;;;;;;;;10334072;28;20041;-87
2021/11/27 03:21:53;;;;;;;6.75;4.28;;;;;;;;;;10332160;28;20033;-87
2021/11/27 03:26:54;;;;;;;5.47;4.00;;;;;;;;;;10331571;28;20034;-87
2021/11/27 03:32:00;;;;;;;5.43;3.77;;;;;;;;;;10334149;28;20480;-86
2021/11/27 03:37:01;;;;;;;5.55;4.43;;;;;;;;;;10337614;28;20447;-86
2021/11/27 03:42:04;;;;;;;5.82;4.32;;;;;;;;;;10334722;28;20361;-87
2021/11/27 03:47:05;;;;;;;5.25;4.03;;;;;;;;;;10333016;28;20113;-85
2021/11/27 03:52:05;;;;;;;7.05;4.22;;;;;;;;;;10334273;28;20161;-88
2021/11/27 03:57:06;;;;;;;5.90;3.97;;;;;;;;;;10334887;28;20042;-88
2021/11/27 04:02:07;;;;;;;5.25;3.90;;;;;;;;;;10334751;28;20034;-88
2021/11/27 04:07:07;;;;;;;4.97;3.92;;;;;;;;;;10332524;28;20035;-85
2021/11/27 04:12:08;;;;;;;6.43;3.80;;;;;;;;;;10333758;28;20033;-86
2021/11/27 04:17:08;;;;;;;9.93;4.32;;;;;;;;;;10343530;28;20042;-85
2021/11/27 04:22:09;;;;;;;6.47;4.20;;;;;;;;;;10329627;28;20026;-84
2021/11/27 04:27:09;;;;;;;4.43;3.15;;;;;;;;;;10338922;28;20061;-85
2021/11/27 04:32:11;;;;;;;6.18;3.72;;;;;;;;;;10348129;28;20057;-83
2021/11/27 04:37:13;;;;;;;4.95;3.80;;;;;;;;;;10330648;28;20472;-86
2021/11/27 04:42:14;;;;;;;4.15;3.67;;;;;;;;;;10334463;28;20495;-87
2021/11/27 04:47:14;;;;;;;5.45;3.75;;;;;;;;;;10341359;28;20033;-86
2021/11/27 04:52:15;;;;;;;18.88;3.92;;;;;;;;;;10341416;28;20464;-86
2021/11/27 04:57:15;;;;;;;4.57;3.75;;;;;;;;;;10340700;28;20033;-86
2021/11/27 05:02:16;;;;;;;4.15;3.58;;;;;;;;;;10340726;28;20042;-87
2021/11/27 05:07:16;;;;;;;5.05;3.45;;;;;;;;;;10340398;28;20081;-88
2021/11/27 05:12:17;;;;;;;5.20;3.78;;;;;;;;;;10359190;28;20029;-87
2021/11/27 05:17:17;;;;;;;5.50;3.60;;;;;;;;;;10341641;28;20053;-87
2021/11/27 05:22:17;;;;;;;4.07;3.23;;;;;;;;;;10340806;28;20026;-88
2021/11/27 05:27:19;;;;;;;5.70;3.53;;;;;;;;;;10345931;28;20479;-85
2021/11/27 05:37:24;;;;;;;3.88;3.17;;;;;;;;;;10339918;28;20353;-87
2021/11/27 05:42:25;;;;;;;3.40;3.10;;;;;;;;;;10346220;28;20040;-86
2021/11/27 05:47:25;;;;;;;4.67;3.33;;;;;;;;;;10379999;28;20029;-84
2021/11/27 05:52:26;;;;;;;3.65;2.97;;;;;;;;;;10339184;28;21019;-86
2021/11/27 05:57:26;;;;;;;7.22;3.40;;;;;;;;;;10339157;28;20026;-89
2021/11/27 06:02:27;;;;;;;4.03;2.97;;;;;;;;;;10338614;28;20027;-84
2021/11/27 06:07:27;;;;;;;4.97;4.47;;;;;;;;;;10338401;28;20365;-86
2021/11/27 06:12:27;;;;;;;6.47;3.90;;;;;;;;;;10335437;28;20456;-86
2021/11/27 06:17:28;;;;;;;9.07;8.30;;;;;;;;;;10333881;28;20523;-83
2021/11/27 06:22:28;;;;;;;8.95;8.18;;;;;;;;;;10337032;28;20030;-82
2021/11/27 06:27:29;;;;;;;8.20;7.40;;;;;;;;;;10337629;28;20026;-84
2021/11/27 06:32:29;;;;;;;5.20;3.90;;;;;;;;;;10318769;28;20081;-84
2021/11/27 06:37:30;;;;;;;7.60;3.80;;;;;;;;;;10336729;28;20437;-82
2021/11/27 06:42:30;;;;;;;8.07;4.28;;;;;;;;;;10307962;28;20511;-81
2021/11/27 06:47:31;;;;;;;5.25;3.70;;;;;;;;;;10336791;28;20026;-82
2021/11/27 06:52:31;;;;;;;10.18;3.92;;;;;;;;;;10334960;28;20038;-81
2021/11/27 06:57:31;;;;;;;14.68;4.05;;;;;;;;;;10333071;28;20030;-80
2021/11/27 07:02:32;;;;;;;11.53;3.93;;;;;;;;;;10340338;28;20443;-78
2021/11/27 07:07:32;;;;;;;7.43;3.63;;;;;;;;;;10333731;28;20495;-78
2021/11/27 07:12:33;;;;;;;13.88;4.10;;;;;;;;;;10328768;28;20045;-79
2021/11/27 07:17:33;;;;;;;6.60;3.80;;;;;;;;;;10330179;28;20030;-79
2021/11/27 07:22:34;;;;;;;4.15;3.47;;;;;;;;;;10330873;28;20523;-79
2021/11/27 07:27:34;;;;;;;8.32;4.10;;;;;;;;;;10319563;28;20045;-79
2021/11/27 07:32:35;;;;;;;4.47;3.97;;;;;;;;;;10292738;28;20078;-84
2021/11/27 07:37:36;;;;;;;8.73;3.72;;;;;;;;;;10296295;28;20035;-83
2021/11/27 07:42:38;;;;;;;5.78;3.55;;;;;;;;;;10305274;28;20050;-82
2021/11/27 07:47:39;;;;;;;4.95;4.10;;;;;;;;;;10302809;28;20097;-80
2021/11/27 07:52:41;;;;;;;4.40;3.97;;;;;;;;;;10303433;28;20034;-79
2021/11/27 07:57:41;;;;;;;5.30;3.67;;;;;;;;;;10317874;28;20498;-79
2021/11/27 08:02:41;;;;;;;5.93;2.65;;;;;;;;;;10332539;28;20058;-79
2021/11/27 08:07:42;;;;;;;15.93;3.70;;;;;;;;;;10320777;28;20070;-78
2021/11/27 08:12:42;;;;;;;13.33;4.40;;;;;;;;;;10309840;28;20819;-79
2021/11/27 08:17:43;;;;;;;13.00;4.10;;;;;;;;;;10297004;28;20432;-78
2021/11/27 08:22:43;;;;;;;16.30;4.97;;;;;;;;;;10311280;28;20467;-82
2021/11/27 08:27:44;;;;;;;18.88;4.30;;;;;;;;;;10319640;28;20069;-79
2021/11/27 08:32:49;;;;;;;15.73;4.20;;;;;;;;;;10332647;28;20539;-79
2021/11/27 08:37:49;;;;;;;9.23;4.43;;;;;;;;;;10308655;28;20448;-78
2021/11/27 08:42:50;;;;;;;14.05;4.97;;;;;;;;;;10319705;28;20113;-79
2021/11/27 08:47:50;;;;;;;16.20;4.78;;;;;;;;;;10315450;28;20432;-79
2021/11/27 08:52:51;;;;;;;13.25;5.18;;;;;;;;;;10327338;28;20384;-79
2021/11/27 08:57:51;;;;;;;28.23;5.03;;;;;;;;;;10316916;28;20493;-79
2021/11/27 09:02:57;;;;;;;18.70;5.05;;;;;;;;;;10308099;28;20552;-79
2021/11/27 09:07:58;;;;;;;13.23;5.35;;;;;;;;;;10324296;28;20038;-79
2021/11/27 09:12:59;;;;;;;38.00;7.28;;;;;;;;;;10301010;28;20030;-80
2021/11/27 09:18:01;;;;;;;44.33;6.68;;;;;;;;;;10317998;28;20104;-80
2021/11/27 09:23:02;;;;;;;22.55;6.25;;;;;;;;;;10320069;28;20034;-79
2021/11/27 09:28:03;;;;;;;28.48;5.97;;;;;;;;;;10303812;28;20415;-79
2021/11/27 09:33:03;;;;;;;25.23;6.55;;;;;;;;;;10304894;28;20034;-80
2021/11/27 09:38:04;;;;;;;24.45;5.55;;;;;;;;;;10313290;28;20030;-79
2021/11/27 09:43:05;;;;;;;30.10;5.38;;;;;;;;;;10304862;28;20027;-81
2021/11/27 09:48:08;;;;;;;26.95;6.07;;;;;;;;;;10326848;28;20042;-82
2021/11/27 09:53:09;;;;;;;21.13;5.25;;;;;;;;;;10330567;28;20027;-84
2021/11/27 09:58:09;;;;;;;24.40;5.53;;;;;;;;;;10310682;28;20045;-80
2021/11/27 10:03:11;;;;;;;19.30;5.10;;;;;;;;;;10307075;28;20043;-81
2021/11/27 10:08:12;;;;;;;20.67;5.38;;;;;;;;;;10310324;28;20455;-81
2021/11/27 10:13:17;;;;;;;23.25;5.60;;;;;;;;;;10301942;28;20050;-83
2021/11/27 10:18:23;;;;;;;29.25;5.43;;;;;;;;;;10311428;28;20034;-84
2021/11/27 10:23:31;;;;;;;31.30;5.72;;;;;;;;;;10332004;28;20022;-82
2021/11/27 10:28:32;;;;;;;21.43;5.17;;;;;;;;;;10331949;28;20058;-81
2021/11/27 10:33:39;;;;;;;17.95;5.30;;;;;;;;;;10334437;28;20026;-79
2021/11/27 10:38:46;;;;;;;24.52;5.13;;;;;;;;;;10329210;28;20038;-83
2021/11/27 10:44:08;;;;;;;29.50;5.10;;;;;;;;;;10310702;28;20105;-82
2021/11/27 10:49:10;;;;;;;28.35;5.55;;;;;;;;;;10332429;28;20041;-80
2021/11/27 10:54:12;;;;;;;16.00;4.45;;;;;;;;;;10322602;28;20034;-77
2021/11/27 10:59:15;;;;;;;18.48;4.60;;;;;;;;;;10337152;28;20029;-80
2021/11/27 11:04:16;;;;;;;16.50;4.80;;;;;;;;;;10324854;28;20372;-81
2021/11/27 11:09:17;;;;;;;15.57;3.50;;;;;;;;;;10320173;28;20404;-81
2021/11/27 11:14:25;;;;;;;14.23;4.50;;;;;;;;;;10301367;28;20042;-81
2021/11/27 11:19:29;;;;;;;15.65;4.22;;;;;;;;;;10314279;28;20030;-78
2021/11/27 11:24:31;;;;;;;18.17;4.10;;;;;;;;;;10332179;28;20031;-81
2021/11/27 11:29:50;;;;;;;17.63;4.20;;;;;;;;;;10328830;28;20057;-81
2021/11/27 11:34:54;;;;;;;10.20;3.47;;;;;;;;;;10326241;28;20032;-82
2021/11/27 11:39:56;;;;;;;10.80;3.17;;;;;;;;;;10346938;28;20085;-82
2021/11/27 11:44:57;;;;;;;14.73;3.70;;;;;;;;;;10330613;28;20027;-81
2021/11/27 11:50:06;;;;;;;13.57;4.13;;;;;;;;;;10330522;28;20030;-82
2021/11/27 11:55:12;;;;;;;9.77;3.35;;;;;;;;;;10318335;28;20031;-80
2021/11/27 12:00:33;;;;;;;13.02;3.92;;;;;;;;;;10305880;28;20272;-82
2021/11/27 12:05:36;;;;;;;13.93;3.90;;;;;;;;;;10321422;28;20505;-82
2021/11/27 12:10:45;;;;;;;9.68;4.00;;;;;;;;;;10329553;28;20314;-81
2021/11/27 12:15:47;;;;;;;14.48;4.00;;;;;;;;;;10324678;28;20049;-82
2021/11/27 12:20:53;;;;;;;12.95;4.22;;;;;;;;;;10291779;28;20031;-82
2021/11/27 12:26:09;;;;;;;13.82;4.18;;;;;;;;;;10311544;28;20062;-83
2021/11/27 12:31:18;;;;;;;14.93;4.15;;;;;;;;;;10468387;23;20057;-81
2021/11/27 12:36:24;;;;;;;15.57;4.75;;;;;;;;;;10350358;28;20387;-83
2021/11/27 12:41:35;;;;;;;8.25;3.70;;;;;;;;;;10342325;28;20444;-83
2021/11/27 12:46:35;;;;;;;15.23;3.78;;;;;;;;;;10336707;28;20085;-82
2021/11/27 12:51:36;;;;;;;9.23;3.30;;;;;;;;;;10334890;28;20073;-83
2021/11/27 12:56:42;;;;;;;8.75;3.25;;;;;;;;;;10321690;28;20101;-82
2021/11/27 13:01:42;;;;;;;7.45;3.65;;;;;;;;;;10320485;28;20041;-82
2021/11/27 13:06:43;;;;;;;8.57;3.65;;;;;;;;;;10331497;28;20034;-80
2021/11/27 13:11:46;;;;;;;13.20;3.83;;;;;;;;;;10345806;28;20034;-82
2021/11/27 13:16:46;;;;;;;10.02;4.05;;;;;;;;;;10330351;28;20444;-80
2021/11/27 13:21:46;;;;;;;7.40;3.30;;;;;;;;;;10339986;28;20038;-81
2021/11/27 13:26:47;;;;;;;8.93;4.17;;;;;;;;;;10337685;28;20461;-80
2021/11/27 13:31:47;;;;;;;13.90;3.83;;;;;;;;;;10345264;28;20467;-79
2021/11/27 13:36:50;;;;;;;5.88;3.35;;;;;;;;;;10343454;28;20436;-80
2021/11/27 13:42:11;;;;;;;12.13;3.33;;;;;;;;;;10337961;28;20034;-80
2021/11/27 13:47:13;;;;;;;13.50;3.30;;;;;;;;;;10340471;28;20114;-79
2021/11/27 13:52:19;;;;;;;7.35;3.40;;;;;;;;;;10336691;28;20473;-78
2021/11/27 13:57:21;;;;;;;16.20;3.85;;;;;;;;;;10333951;28;20124;-78
2021/11/27 14:02:21;;;;;;;13.65;3.47;;;;;;;;;;10341813;28;20026;-79
2021/11/27 14:07:22;;;;;;;11.80;3.50;;;;;;;;;;10343591;28;20029;-78
2021/11/27 14:12:37;;;;;;;12.80;3.42;;;;;;;;;;10338624;28;20042;-78
2021/11/27 14:17:40;;;;;;;8.07;3.58;;;;;;;;;;10344131;28;20129;-78
2021/11/27 14:23:00;;;;;;;10.52;3.67;;;;;;;;;;10335189;28;20034;-78
2021/11/27 14:28:05;;;;;;;12.93;3.65;;;;;;;;;;10331684;28;20073;-85
2021/11/27 14:33:28;;;;;;;12.05;4.22;;;;;;;;;;10343784;28;20056;-87
2021/11/27 14:38:45;;;;;;;10.00;3.03;;;;;;;;;;10334106;28;20033;-88
2021/11/27 14:43:58;;;;;;;10.07;3.55;;;;;;;;;;10328599;28;20030;-88
2021/11/27 14:49:19;;;;;;;9.50;3.42;;;;;;;;;;10334031;28;20030;-88
2021/11/27 14:54:22;;;;;;;7.80;3.67;;;;;;;;;;10336443;28;20034;-87
2021/11/27 14:59:23;;;;;;;6.97;2.97;;;;;;;;;;10343572;28;20057;-87
2021/11/27 15:04:24;;;;;;;5.38;3.08;;;;;;;;;;10348018;28;20069;-87
2021/11/27 15:09:24;;;;;;;11.65;3.35;;;;;;;;;;10330190;28;20034;-88
2021/11/27 15:14:24;;;;;;;9.00;3.17;;;;;;;;;;10332063;28;20495;-88
2021/11/27 15:19:25;;;;;;;8.03;3.23;;;;;;;;;;10337101;28;20480;-89
2021/11/27 15:24:25;;;;;;;5.87;2.50;;;;;;;;;;10327015;28;20045;-89
2021/11/27 15:29:26;;;;;;;7.20;2.88;;;;;;;;;;10330516;28;20061;-89
2021/11/27 15:34:28;;;;;;;7.27;2.80;;;;;;;;;;10334121;28;20129;-87
2021/11/27 15:39:29;;;;;;;7.30;3.25;;;;;;;;;;10334239;28;20441;-87
2021/11/27 15:44:31;;;;;;;7.70;2.90;;;;;;;;;;10330862;28;20491;-85
2021/11/27 15:49:31;;;;;;;6.78;3.38;;;;;;;;;;10314583;28;20030;-77
2021/11/27 15:54:32;;;;;;;7.20;2.92;;;;;;;;;;10262274;28;20413;-77
2021/11/27 15:59:33;;;;;;;7.47;2.92;;;;;;;;;;10280057;28;20457;-78
2021/11/27 16:04:33;;;;;;;4.22;2.33;;;;;;;;;;10279535;28;20029;-80
2021/11/27 16:09:34;;;;;;;7.22;3.15;;;;;;;;;;10271989;28;20042;-80
2021/11/27 16:14:34;;;;;;;6.97;2.90;;;;;;;;;;10266959;28;20583;-80
2021/11/27 16:19:35;;;;;;;6.72;2.83;;;;;;;;;;10283622;28;20445;-80
2021/11/27 16:24:35;;;;;;;6.88;3.33;;;;;;;;;;10259748;28;20026;-81
2021/11/27 16:29:38;;;;;;;6.72;2.83;;;;;;;;;;10283625;28;20128;-80
2021/11/27 16:34:42;;;;;;;8.63;3.20;;;;;;;;;;10232875;28;20056;-83
2021/11/27 16:39:43;;;;;;;9.48;2.42;;;;;;;;;;10178600;29;20903;-81
2021/11/27 16:44:43;;;;;;;6.88;2.60;;;;;;;;;;10164645;29;20035;-81
2021/11/27 16:49:44;;;;;;;14.87;2.60;;;;;;;;;;10167367;29;20491;-80
2021/11/27 16:54:46;;;;;;;8.60;3.13;;;;;;;;;;10167647;29;20466;-81
2021/11/27 16:59:46;;;;;;;8.88;2.67;;;;;;;;;;10175837;29;20453;-80
2021/11/27 17:04:47;;;;;;;16.13;2.78;;;;;;;;;;10180471;29;20062;-80
2021/11/27 17:09:47;;;;;;;6.55;2.47;;;;;;;;;;10179829;29;20858;-80
2021/11/27 17:14:48;;;;;;;5.03;3.03;;;;;;;;;;10167396;29;20162;-81
2021/11/27 17:19:48;;;;;;;7.43;2.60;;;;;;;;;;10198139;28;20073;-82
2021/11/27 17:24:49;;;;;;;6.65;3.10;;;;;;;;;;10189324;29;21210;-81
2021/11/27 17:29:49;;;;;;;9.43;2.78;;;;;;;;;;10174280;29;20158;-81
2021/11/27 17:34:50;;;;;;;5.53;3.42;;;;;;;;;;10168459;29;20481;-80
2021/11/27 17:39:51;;;;;;;10.82;3.10;;;;;;;;;;10192861;29;20027;-82
2021/11/27 17:44:52;;;;;;;7.20;2.80;;;;;;;;;;10185993;29;20062;-82
2021/11/27 17:49:52;;;;;;;7.65;3.08;;;;;;;;;;10173026;29;20047;-82
2021/11/27 17:54:53;;;;;;;4.40;2.88;;;;;;;;;;10166064;29;20433;-79
2021/11/27 17:59:54;;;;;;;6.37;3.33;;;;;;;;;;10181281;29;20110;-79
2021/11/27 18:04:54;;;;;;;6.35;2.90;;;;;;;;;;10184677;29;20517;-79
2021/11/27 18:09:55;;;;;;;8.13;2.73;;;;;;;;;;10177553;29;20047;-79
2021/11/27 18:14:56;;;;;;;6.18;3.03;;;;;;;;;;10166930;29;20466;-80
2021/11/27 18:19:56;;;;;;;5.70;2.67;;;;;;;;;;10186424;29;20110;-79
2021/11/27 18:30:08;;;;;;;5.55;3.05;;;;;;;;;;10233493;29;20480;-80
2021/11/27 18:35:08;;;;;;;6.93;2.83;;;;;;;;;;10249714;29;20091;-80
2021/11/27 18:40:10;;;;;;;5.90;3.30;;;;;;;;;;10229308;29;20032;-79
2021/11/27 18:45:10;;;;;;;5.22;2.53;;;;;;;;;;10234301;29;20084;-80
2021/11/27 18:50:10;;;;;;;10.10;2.70;;;;;;;;;;10228431;29;20048;-80
2021/11/27 18:55:11;;;;;;;5.50;2.63;;;;;;;;;;10235334;29;20484;-80
2021/11/27 19:00:12;;;;;;;4.47;2.43;;;;;;;;;;10236174;29;20035;-78
2021/11/27 19:05:12;;;;;;;20.90;2.80;;;;;;;;;;10222513;29;20469;-78
2021/11/27 19:10:13;;;;;;;11.37;2.77;;;;;;;;;;10223099;29;20068;-78
2021/11/27 19:15:13;;;;;;;13.82;2.65;;;;;;;;;;10227404;29;20454;-79
2021/11/27 19:20:14;;;;;;;12.80;2.90;;;;;;;;;;10227411;28;20031;-78
2021/11/27 19:25:15;;;;;;;13.65;3.03;;;;;;;;;;10220398;29;20034;-78
2021/11/27 19:30:16;;;;;;;8.52;2.55;;;;;;;;;;10227340;29;20508;-78
2021/11/27 19:35:16;;;;;;;7.47;2.40;;;;;;;;;;10230722;29;20031;-78
2021/11/27 19:40:17;;;;;;;11.33;2.97;;;;;;;;;;10235270;29;20454;-78
2021/11/27 19:45:17;;;;;;;13.48;2.75;;;;;;;;;;10225315;29;20469;-78
2021/11/27 19:50:21;;;;;;;7.73;2.97;;;;;;;;;;10228068;29;20038;-79
2021/11/27 19:55:22;;;;;;;7.85;3.28;;;;;;;;;;10225253;29;20633;-79
2021/11/27 20:00:22;;;;;;;5.10;2.60;;;;;;;;;;10233285;29;20041;-79
2021/11/27 20:05:23;;;;;;;7.83;3.43;;;;;;;;;;10237632;29;20047;-78
2021/11/27 20:10:25;;;;;;;7.73;3.20;;;;;;;;;;10223497;29;20047;-79
2021/11/27 20:15:25;;;;;;;6.82;2.95;;;;;;;;;;10237190;29;20538;-78
2021/11/27 20:20:26;;;;;;;5.82;2.95;;;;;;;;;;10226233;29;20111;-79
2021/11/27 20:25:28;;;;;;;4.05;3.00;;;;;;;;;;10231018;28;20059;-79
2021/11/27 20:30:28;;;;;;;4.95;2.65;;;;;;;;;;10224903;29;20111;-79
2021/11/27 20:35:29;;;;;;;6.57;2.93;;;;;;;;;;10224720;29;20039;-78
2021/11/27 20:40:29;;;;;;;5.55;2.80;;;;;;;;;;10218564;29;20450;-79
2021/11/27 20:45:31;;;;;;;6.22;3.08;;;;;;;;;;10216466;29;20027;-79
2021/11/27 20:50:31;;;;;;;7.05;2.70;;;;;;;;;;10223983;29;20044;-79
2021/11/27 20:55:32;;;;;;;5.80;3.28;;;;;;;;;;10213462;29;20164;-79
2021/11/27 21:00:32;;;;;;;4.85;2.85;;;;;;;;;;10217699;29;20032;-79
2021/11/27 21:05:33;;;;;;;5.43;2.88;;;;;;;;;;10208769;29;20028;-79
2021/11/27 21:10:37;;;;;;;6.05;3.35;;;;;;;;;;10211987;29;20040;-78
2021/11/27 21:15:38;;;;;;;4.50;3.28;;;;;;;;;;10225700;29;20174;-78
2021/11/27 21:20:38;;;;;;;4.82;3.28;;;;;;;;;;10202510;29;20398;-78
2021/11/27 21:25:39;;;;;;;6.78;3.00;;;;;;;;;;10187671;29;20394;-79
2021/11/27 21:30:39;;;;;;;12.95;3.42;;;;;;;;;;10227130;29;20056;-80
2021/11/27 21:35:39;;;;;;;7.10;3.13;;;;;;;;;;10243911;29;20027;-79
2021/11/27 21:40:41;;;;;;;12.57;3.40;;;;;;;;;;10236547;29;20474;-81
2021/11/27 21:45:44;;;;;;;12.48;3.08;;;;;;;;;;10231577;29;20079;-82
2021/11/27 21:50:44;;;;;;;9.75;3.50;;;;;;;;;;10233525;29;20036;-83
2021/11/27 21:55:45;;;;;;;6.20;3.25;;;;;;;;;;10246359;28;20095;-82
2021/11/27 22:00:46;;;;;;;8.20;3.60;;;;;;;;;;10225098;29;20118;-85
2021/11/27 22:05:47;;;;;;;7.28;2.78;;;;;;;;;;10242477;29;20024;-83
2021/11/27 22:10:49;;;;;;;5.13;3.15;;;;;;;;;;10236174;29;20032;-84
2021/11/27 22:15:49;;;;;;;5.93;3.03;;;;;;;;;;10239335;29;20031;-81
2021/11/27 22:20:50;;;;;;;6.97;3.00;;;;;;;;;;10231047;29;20020;-84
2021/11/27 22:25:50;;;;;;;7.97;3.50;;;;;;;;;;10232752;29;20451;-82
2021/11/27 22:30:51;;;;;;;4.90;3.03;;;;;;;;;;10230305;29;20462;-83
2021/11/27 22:35:52;;;;;;;4.75;2.97;;;;;;;;;;10238563;29;20023;-83
2021/11/27 22:40:53;;;;;;;8.80;3.22;;;;;;;;;;10254182;29;20027;-83
2021/11/27 22:45:53;;;;;;;4.50;2.90;;;;;;;;;;10237473;29;20039;-82
2021/11/27 22:50:54;;;;;;;4.10;2.90;;;;;;;;;;10229357;29;20551;-83
2021/11/27 22:55:57;;;;;;;4.85;2.97;;;;;;;;;;10228504;29;20032;-84
2021/11/27 23:01:10;;;;;;;4.28;2.80;;;;;;;;;;10205734;29;20049;-85
2021/11/27 23:06:12;;;;;;;3.33;2.63;;;;;;;;;;10221212;29;20067;-82
2021/11/27 23:11:16;;;;;;;3.53;2.78;;;;;;;;;;10224596;29;20036;-82
2021/11/27 23:16:18;;;;;;;3.10;2.75;;;;;;;;;;10232855;29;20046;-81
2021/11/27 23:24:17;;;;;;;8.05;2.70;;;;;;;;;;10478899;28;20623;-75
2021/11/27 23:29:18;;;;;;;4.75;2.70;;;;;;;;;;10482573;28;20450;-76
2021/11/27 23:34:19;;;;;;;6.15;2.58;;;;;;;;;;10480404;28;20068;-76
2021/11/27 23:39:20;;;;;;;4.60;2.78;;;;;;;;;;10489593;28;20032;-76
2021/11/27 23:44:21;;;;;;;6.88;3.00;;;;;;;;;;10482341;28;20028;-76
2021/11/27 23:49:21;;;;;;;6.32;2.58;;;;;;;;;;10476797;28;20033;-76
2021/11/27 23:54:22;;;;;;;3.65;2.08;;;;;;;;;;10471050;28;20036;-77
2021/11/27 23:59:22;;;;;;;9.50;2.60;;;;;;;;;;10472456;28;20128;-78
